Time;durP1;ratioP1;P1;durP2;ratioP2;P2;SDS_P1;SDS_P2;PMS_P1;PMS_P2;Temp;Humidity;BMP_temperature;BMP_pressure;BME280_temperature;BME280_humidity;BME280_pressure;Samples;Min_cycle;Max_cycle;Signal;HPM_P1;HPM_P2
2023/03/14 00:01:17;;;;;;;17.23;3.38;;;9.30;99.90;;;;;;5019949;28;20041;-78
2023/03/14 00:03:43;;;;;;;16.48;2.67;;;9.40;99.90;;;;;;5054762;28;20048;-77
2023/03/14 00:06:10;;;;;;;14.52;3.20;;;9.60;99.90;;;;;;5020398;28;20098;-75
2023/03/14 00:08:36;;;;;;;13.45;2.85;;;9.30;99.90;;;;;;5054123;28;20044;-77
2023/03/14 00:11:07;;;;;;;18.15;2.80;;;9.30;99.90;;;;;;5019989;28;20049;-77
2023/03/14 00:13:32;;;;;;;12.77;1.98;;;9.20;99.90;;;;;;5053858;28;20045;-77
2023/03/14 00:16:10;;;;;;;15.95;2.33;;;9.30;99.90;;;;;;5036361;28;20499;-77
2023/03/14 00:18:36;;;;;;;12.65;3.08;;;9.30;99.90;;;;;;5036192;28;20060;-78
2023/03/14 00:21:04;;;;;;;16.73;2.35;;;9.30;99.90;;;;;;5053833;28;20083;-78
2023/03/14 00:23:32;;;;;;;9.55;2.30;;;9.30;99.90;;;;;;5036190;28;20507;-77
2023/03/14 00:26:15;;;;;;;10.00;3.15;;;9.30;99.90;;;;;;5037053;28;20059;-79
2023/03/14 00:28:42;;;;;;;17.67;3.13;;;9.30;99.90;;;;;;5054129;28;20064;-79
2023/03/14 00:31:09;;;;;;;12.80;2.70;;;9.40;99.90;;;;;;5054291;28;20051;-79
2023/03/14 00:33:35;;;;;;;13.65;2.50;;;9.40;99.90;;;;;;5036028;28;20053;-79
2023/03/14 00:36:08;;;;;;;10.00;1.92;;;9.40;99.90;;;;;;5053630;28;20037;-78
2023/03/14 00:38:34;;;;;;;7.65;2.05;;;9.30;99.90;;;;;;5036095;28;20053;-77
2023/03/14 00:41:07;;;;;;;15.00;2.25;;;9.50;99.90;;;;;;5020231;28;20132;-79
2023/03/14 00:43:33;;;;;;;12.43;2.42;;;9.60;99.90;;;;;;5019903;28;20137;-78
2023/03/14 00:45:58;;;;;;;11.32;1.70;;;9.50;99.90;;;;;;5035900;28;20127;-77
2023/03/14 00:48:24;;;;;;;12.77;2.35;;;9.70;99.90;;;;;;5036157;28;20067;-78
2023/03/14 00:50:50;;;;;;;11.27;2.10;;;9.80;99.90;;;;;;5053505;28;20048;-78
2023/03/14 00:53:16;;;;;;;13.25;3.15;;;9.80;99.90;;;;;;5053417;28;20098;-78
2023/03/14 00:55:43;;;;;;;13.00;2.40;;;10.20;99.90;;;;;;5036668;28;20447;-78
2023/03/14 00:58:14;;;;;;;14.73;2.25;;;9.90;99.90;;;;;;5019484;28;20045;-79
2023/03/14 01:00:40;;;;;;;11.82;2.00;;;9.90;99.90;;;;;;5020611;28;20123;-78
2023/03/14 01:03:07;;;;;;;10.68;2.28;;;10.00;99.90;;;;;;5036307;28;20473;-77
2023/03/14 01:05:33;;;;;;;9.13;1.60;;;10.10;99.90;;;;;;5036689;28;20053;-78
2023/03/14 01:07:58;;;;;;;14.52;2.53;;;10.00;99.90;;;;;;5053041;28;20045;-78
2023/03/14 01:10:24;;;;;;;12.98;2.30;;;10.00;99.90;;;;;;5053328;28;20052;-78
2023/03/14 01:12:50;;;;;;;11.25;2.50;;;10.00;99.90;;;;;;5053342;28;20096;-78
2023/03/14 01:15:16;;;;;;;9.63;2.10;;;10.00;99.90;;;;;;5053299;28;20049;-78
2023/03/14 01:17:42;;;;;;;10.65;2.20;;;10.00;99.90;;;;;;5035499;28;20076;-78
2023/03/14 01:20:10;;;;;;;13.27;2.40;;;10.00;99.90;;;;;;5053258;28;20057;-77
2023/03/14 01:22:40;;;;;;;10.90;2.15;;;10.20;99.90;;;;;;5035937;28;20107;-78
2023/03/14 01:25:12;;;;;;;9.73;2.10;;;9.90;99.90;;;;;;5036716;28;20053;-77
2023/03/14 01:27:38;;;;;;;15.32;2.50;;;10.00;99.90;;;;;;5040335;28;20079;-78
2023/03/14 01:30:05;;;;;;;13.27;2.25;;;10.00;99.90;;;;;;5039438;28;20136;-78
2023/03/14 01:32:31;;;;;;;11.80;2.70;;;10.20;99.90;;;;;;5057889;28;20051;-78
2023/03/14 01:34:57;;;;;;;13.70;2.85;;;10.00;99.90;;;;;;5057025;28;20399;-77
2023/03/14 01:37:22;;;;;;;9.60;2.90;;;10.00;99.90;;;;;;5056951;28;20049;-76
2023/03/14 01:39:48;;;;;;;13.35;2.85;;;10.30;99.90;;;;;;5039018;28;20047;-77
2023/03/14 01:42:15;;;;;;;9.35;2.25;;;10.00;99.90;;;;;;5057317;28;20106;-77
2023/03/14 01:44:51;;;;;;;10.13;2.72;;;10.00;99.90;;;;;;5039344;28;20391;-77
2023/03/14 01:47:17;;;;;;;12.52;2.67;;;10.10;99.90;;;;;;5039959;28;20084;-77
2023/03/14 01:49:46;;;;;;;10.95;2.67;;;10.20;99.90;;;;;;5056832;28;20045;-77
2023/03/14 01:52:43;;;;;;;10.82;2.13;;;10.00;99.90;;;;;;5057331;28;20041;-76
2023/03/14 01:55:17;;;;;;;10.32;2.35;;;10.00;99.90;;;;;;5017908;28;20136;-79
2023/03/14 01:57:50;;;;;;;10.60;2.30;;;10.10;99.90;;;;;;5057223;28;20041;-78
2023/03/14 02:00:19;;;;;;;8.15;2.88;;;10.00;99.90;;;;;;5056596;28;20071;-78
2023/03/14 02:02:47;;;;;;;7.47;2.90;;;10.20;99.90;;;;;;5057882;28;20389;-78
2023/03/14 02:05:18;;;;;;;9.02;2.33;;;10.10;99.90;;;;;;5039264;28;20139;-78
2023/03/14 02:07:53;;;;;;;9.50;2.50;;;10.10;99.90;;;;;;5039913;28;20437;-78
2023/03/14 02:10:27;;;;;;;9.93;2.90;;;10.10;99.90;;;;;;5056475;28;20432;-79
2023/03/14 02:12:55;;;;;;;8.15;2.40;;;9.90;99.90;;;;;;5057184;28;20041;-75
2023/03/14 02:15:21;;;;;;;13.45;2.00;;;10.00;99.90;;;;;;5057314;28;20045;-78
2023/03/14 02:17:47;;;;;;;10.32;1.88;;;10.10;99.90;;;;;;5022130;28;20164;-80
2023/03/14 02:20:44;;;;;;;12.77;1.95;;;10.20;99.90;;;;;;5005874;28;20084;-79
2023/03/14 02:23:09;;;;;;;7.72;1.80;;;10.10;99.90;;;;;;5039514;28;20049;-78
2023/03/14 02:25:57;;;;;;;7.75;1.50;;;10.10;99.90;;;;;;5056178;28;20070;-78
2023/03/14 02:28:23;;;;;;;10.98;1.67;;;10.30;99.90;;;;;;5038447;28;20128;-81
2023/03/14 02:30:49;;;;;;;5.53;1.45;;;10.10;99.90;;;;;;5056777;28;20041;-77
2023/03/14 02:33:18;;;;;;;6.60;1.70;;;10.10;99.90;;;;;;5038893;28;20490;-77
2023/03/14 02:36:06;;;;;;;7.60;1.63;;;10.20;99.90;;;;;;5038881;28;20052;-77
2023/03/14 02:39:03;;;;;;;7.25;1.48;;;10.20;99.90;;;;;;5055367;28;20052;-76
2023/03/14 02:41:30;;;;;;;5.63;1.27;;;10.30;99.90;;;;;;5036339;28;20056;-77
2023/03/14 02:43:55;;;;;;;10.90;1.50;;;10.20;99.90;;;;;;5038170;28;20056;-77
2023/03/14 02:46:21;;;;;;;5.80;1.60;;;10.20;99.90;;;;;;5037893;28;20041;-78
2023/03/14 02:48:53;;;;;;;5.30;1.33;;;10.30;99.90;;;;;;5038803;28;20135;-76
2023/03/14 02:51:21;;;;;;;5.35;1.52;;;10.10;99.90;;;;;;5039834;28;20047;-79
2023/03/14 02:53:46;;;;;;;6.53;1.23;;;10.20;99.90;;;;;;5056163;28;20048;-79
2023/03/14 02:56:12;;;;;;;5.93;1.10;;;10.10;99.90;;;;;;5022131;28;20151;-76
2023/03/14 02:58:38;;;;;;;5.53;1.20;;;10.10;99.90;;;;;;5056683;28;20045;-78
2023/03/14 03:01:05;;;;;;;4.60;1.10;;;10.10;99.90;;;;;;5055940;28;20152;-78
2023/03/14 03:03:30;;;;;;;5.47;1.08;;;10.10;99.90;;;;;;5038665;28;20064;-79
2023/03/14 03:05:56;;;;;;;7.63;1.42;;;10.10;99.90;;;;;;5055958;28;20045;-79
2023/03/14 03:08:26;;;;;;;7.20;1.50;;;10.10;99.90;;;;;;5021711;28;20091;-74
2023/03/14 03:10:52;;;;;;;8.52;1.15;;;10.10;99.90;;;;;;5055524;28;20045;-76
2023/03/14 03:13:18;;;;;;;8.48;1.20;;;10.20;99.90;;;;;;5038660;28;20053;-74
2023/03/14 03:15:44;;;;;;;8.23;1.80;;;10.10;99.90;;;;;;5056288;28;20051;-76
2023/03/14 03:18:11;;;;;;;8.85;1.95;;;10.00;99.90;;;;;;5056113;28;20464;-76
2023/03/14 03:20:37;;;;;;;9.85;1.70;;;10.00;99.90;;;;;;5055482;28;20106;-77
2023/03/14 03:23:03;;;;;;;8.77;2.08;;;10.00;99.90;;;;;;5055289;28;20409;-78
2023/03/14 03:25:29;;;;;;;6.57;2.03;;;9.80;99.90;;;;;;5055536;28;20072;-76
2023/03/14 03:27:55;;;;;;;10.25;1.85;;;9.90;99.90;;;;;;5037978;28;20114;-75
2023/03/14 03:30:20;;;;;;;8.57;2.08;;;10.00;99.90;;;;;;5055238;28;20136;-76
2023/03/14 03:32:46;;;;;;;7.32;1.77;;;10.10;99.90;;;;;;5055092;28;20049;-75
2023/03/14 03:35:12;;;;;;;7.53;2.47;;;10.00;99.90;;;;;;5055767;28;20041;-74
2023/03/14 03:37:38;;;;;;;7.00;2.38;;;10.00;99.90;;;;;;5055406;28;20095;-76
2023/03/14 03:40:05;;;;;;;8.68;2.83;;;10.00;99.90;;;;;;5055353;28;20084;-80
2023/03/14 03:42:32;;;;;;;9.93;3.35;;;9.90;99.90;;;;;;5039108;28;20056;-76
2023/03/14 03:44:58;;;;;;;8.15;2.92;;;10.00;99.90;;;;;;5055622;28;20100;-77
2023/03/14 03:47:24;;;;;;;11.82;3.72;;;9.90;99.90;;;;;;5055256;28;20385;-75
2023/03/14 03:49:50;;;;;;;11.82;3.28;;;9.90;99.90;;;;;;5037702;28;20059;-77
2023/03/14 03:52:15;;;;;;;9.63;3.30;;;9.90;99.90;;;;;;5056238;28;20041;-75
2023/03/14 03:54:41;;;;;;;12.30;3.78;;;9.80;99.90;;;;;;5037646;28;20052;-76
2023/03/14 03:57:07;;;;;;;10.40;3.75;;;9.90;99.90;;;;;;5037543;28;20045;-75
2023/03/14 03:59:33;;;;;;;8.30;3.58;;;10.00;99.90;;;;;;5038638;28;20045;-77
2023/03/14 04:01:58;;;;;;;9.30;3.67;;;9.80;99.90;;;;;;5040593;28;20048;-78
2023/03/14 04:04:24;;;;;;;8.43;2.63;;;9.80;99.90;;;;;;5055709;28;20052;-77
2023/03/14 04:06:50;;;;;;;8.93;2.67;;;10.10;99.90;;;;;;5054927;28;20131;-76
2023/03/14 04:09:15;;;;;;;8.63;2.67;;;9.70;99.90;;;;;;5054884;28;20048;-77
2023/03/14 04:11:41;;;;;;;11.48;3.10;;;9.60;99.90;;;;;;5021114;28;20067;-78
2023/03/14 04:14:07;;;;;;;12.23;3.00;;;9.60;99.90;;;;;;5054870;28;20048;-76
2023/03/14 04:16:33;;;;;;;8.88;2.65;;;9.60;99.90;;;;;;5020386;28;20041;-75
2023/03/14 04:19:00;;;;;;;10.43;2.80;;;9.70;99.90;;;;;;5033002;28;20490;-75
2023/03/14 04:21:26;;;;;;;8.98;3.95;;;9.70;99.90;;;;;;5034080;28;20485;-74
2023/03/14 04:23:52;;;;;;;7.68;3.05;;;9.50;99.90;;;;;;5034080;28;20052;-76
2023/03/14 04:26:18;;;;;;;11.02;4.45;;;9.50;99.90;;;;;;5034586;28;20052;-74
2023/03/14 04:28:43;;;;;;;9.50;3.97;;;9.50;99.90;;;;;;5032513;28;20060;-74
2023/03/14 04:31:12;;;;;;;10.57;4.55;;;9.60;99.90;;;;;;5016596;28;20077;-75
2023/03/14 04:33:37;;;;;;;11.82;4.03;;;9.50;99.90;;;;;;5034355;28;20094;-75
2023/03/14 04:36:05;;;;;;;8.02;3.75;;;9.50;99.90;;;;;;5032993;28;20401;-75
2023/03/14 04:38:30;;;;;;;11.48;4.72;;;9.60;99.90;;;;;;5034177;28;20049;-75
2023/03/14 04:40:56;;;;;;;8.57;2.75;;;9.40;99.90;;;;;;5032911;28;20045;-76
2023/03/14 04:43:22;;;;;;;9.20;3.67;;;9.50;99.90;;;;;;5033876;28;20045;-75
2023/03/14 04:45:47;;;;;;;12.45;4.20;;;9.50;99.90;;;;;;5033734;28;20053;-75
2023/03/14 04:48:13;;;;;;;11.23;4.20;;;9.40;99.90;;;;;;5033618;28;20087;-76
2023/03/14 04:50:39;;;;;;;8.13;3.90;;;9.50;99.90;;;;;;5032608;28;20073;-75
2023/03/14 04:53:05;;;;;;;8.73;3.22;;;9.40;99.90;;;;;;5033826;28;20477;-76
2023/03/14 04:55:32;;;;;;;10.52;3.40;;;9.30;99.90;;;;;;5033632;28;20053;-75
2023/03/14 04:57:59;;;;;;;9.60;3.92;;;9.30;99.90;;;;;;5032691;28;20085;-75
2023/03/14 05:00:24;;;;;;;12.73;5.15;;;9.30;99.90;;;;;;5035953;28;20385;-77
2023/03/14 05:02:50;;;;;;;9.70;4.50;;;9.20;99.90;;;;;;5036765;28;20045;-76
2023/03/14 05:05:16;;;;;;;9.70;4.18;;;9.20;99.90;;;;;;5037613;28;20042;-75
2023/03/14 05:07:42;;;;;;;11.45;4.47;;;9.20;99.90;;;;;;5038430;28;20051;-74
2023/03/14 05:10:09;;;;;;;8.27;4.25;;;9.20;99.90;;;;;;5037703;28;20053;-75
2023/03/14 05:12:35;;;;;;;6.00;3.53;;;9.30;99.90;;;;;;5037644;28;20057;-75
2023/03/14 05:15:01;;;;;;;8.07;4.18;;;9.20;99.90;;;;;;5037648;28;20375;-74
2023/03/14 05:17:26;;;;;;;10.52;5.07;;;9.20;99.90;;;;;;5040721;28;20061;-75
2023/03/14 05:19:52;;;;;;;12.95;5.40;;;9.10;99.90;;;;;;5057130;28;20139;-75
2023/03/14 05:22:18;;;;;;;10.15;4.40;;;9.40;99.90;;;;;;5007070;28;20045;-77
2023/03/14 05:24:43;;;;;;;8.63;3.10;;;9.10;99.90;;;;;;5039541;28;20045;-76
2023/03/14 05:27:09;;;;;;;10.18;3.55;;;9.30;99.90;;;;;;5057791;28;20052;-76
2023/03/14 05:29:35;;;;;;;9.93;3.95;;;9.20;99.90;;;;;;5023373;28;20183;-76
2023/03/14 05:32:00;;;;;;;7.82;2.90;;;9.20;99.90;;;;;;5057285;28;20048;-77
2023/03/14 05:34:26;;;;;;;6.25;3.22;;;9.20;99.90;;;;;;5040047;28;20115;-76
2023/03/14 05:36:52;;;;;;;4.80;1.77;;;9.20;99.90;;;;;;5057007;28;20396;-76
2023/03/14 05:39:18;;;;;;;6.95;2.72;;;9.30;99.90;;;;;;5057607;28;20048;-76
2023/03/14 05:41:43;;;;;;;4.80;2.00;;;9.20;99.90;;;;;;5057088;28;20044;-76
2023/03/14 05:44:09;;;;;;;6.60;3.10;;;9.10;99.90;;;;;;5039591;28;20045;-77
2023/03/14 05:46:35;;;;;;;8.20;2.60;;;9.20;99.90;;;;;;5057049;28;20124;-77
2023/03/14 05:49:00;;;;;;;7.32;2.70;;;8.90;99.90;;;;;;5039416;28;20116;-75
2023/03/14 05:51:26;;;;;;;8.18;2.95;;;9.10;99.90;;;;;;5039542;28;20102;-75
2023/03/14 05:53:52;;;;;;;6.95;2.78;;;9.00;99.90;;;;;;5039497;28;20049;-77
2023/03/14 05:56:18;;;;;;;6.97;2.88;;;9.10;99.90;;;;;;5057959;28;20049;-76
2023/03/14 05:58:43;;;;;;;6.70;3.47;;;9.10;99.90;;;;;;5039903;28;20186;-75
2023/03/14 06:01:09;;;;;;;9.38;2.92;;;9.20;99.90;;;;;;5039805;28;20037;-74
2023/03/14 06:03:35;;;;;;;12.13;3.53;;;9.00;99.90;;;;;;5056762;28;20041;-74
2023/03/14 06:06:01;;;;;;;9.32;2.90;;;9.00;99.90;;;;;;5056783;28;20049;-75
2023/03/14 06:08:28;;;;;;;14.65;3.70;;;9.00;99.90;;;;;;5057229;28;20064;-73
2023/03/14 06:10:53;;;;;;;8.52;3.72;;;8.90;99.90;;;;;;5022547;28;20500;-74
2023/03/14 06:13:19;;;;;;;10.30;3.65;;;9.20;99.90;;;;;;5057345;28;20040;-73
2023/03/14 06:15:45;;;;;;;9.80;3.58;;;8.90;99.90;;;;;;5056861;28;20048;-74
2023/03/14 06:18:12;;;;;;;9.20;3.20;;;9.20;99.90;;;;;;5022712;28;20140;-73
2023/03/14 06:20:41;;;;;;;9.57;3.25;;;9.00;99.90;;;;;;5056192;28;20041;-72
2023/03/14 06:23:08;;;;;;;7.13;3.38;;;9.00;99.90;;;;;;5022778;28;20536;-73
2023/03/14 06:25:35;;;;;;;8.25;3.45;;;9.20;99.90;;;;;;5056381;28;20175;-73
2023/03/14 06:28:01;;;;;;;7.68;3.90;;;8.90;99.90;;;;;;5056880;28;20472;-73
2023/03/14 06:30:27;;;;;;;11.77;3.60;;;9.10;99.90;;;;;;5056805;28;20076;-73
2023/03/14 06:32:53;;;;;;;7.13;2.88;;;8.90;99.90;;;;;;5056627;28;20064;-73
2023/03/14 06:35:19;;;;;;;11.77;3.72;;;8.90;99.90;;;;;;5056585;28;20171;-74
2023/03/14 06:37:45;;;;;;;6.57;3.30;;;8.90;99.90;;;;;;5056429;28;20059;-73
2023/03/14 06:40:16;;;;;;;11.00;5.53;;;8.80;99.90;;;;;;5038955;28;20055;-73
2023/03/14 06:42:43;;;;;;;11.32;5.63;;;8.90;99.90;;;;;;5039220;28;20072;-72
2023/03/14 06:45:09;;;;;;;14.43;6.57;;;8.80;99.90;;;;;;5039010;28;20504;-72
2023/03/14 06:47:35;;;;;;;11.95;5.43;;;8.90;99.90;;;;;;5022865;28;20049;-73
2023/03/14 06:50:00;;;;;;;9.35;3.30;;;8.80;99.90;;;;;;5040261;28;20059;-73
2023/03/14 06:52:26;;;;;;;7.00;2.90;;;8.90;99.90;;;;;;5023407;28;20044;-71
2023/03/14 06:54:52;;;;;;;5.25;2.20;;;8.90;99.90;;;;;;5038836;28;20152;-73
2023/03/14 06:57:17;;;;;;;5.22;1.73;;;8.70;99.90;;;;;;5039411;28;20048;-73
2023/03/14 06:59:43;;;;;;;7.70;2.22;;;9.00;99.90;;;;;;5055903;28;20041;-75
2023/03/14 07:02:12;;;;;;;7.13;2.13;;;8.70;99.90;;;;;;5055890;28;20048;-72
2023/03/14 07:04:38;;;;;;;3.75;0.88;;;8.70;99.90;;;;;;5038704;28;20130;-74
2023/03/14 07:07:04;;;;;;;6.60;0.50;;;8.80;99.90;;;;;;5039309;28;20465;-71
2023/03/14 07:09:30;;;;;;;2.60;0.95;;;8.40;99.90;;;;;;5055813;28;20076;-71
2023/03/14 07:11:55;;;;;;;2.63;0.40;;;8.00;99.90;;;;;;5055894;28;20385;-74
2023/03/14 07:14:21;;;;;;;3.92;0.55;;;7.70;99.90;;;;;;5055414;28;20084;-72
2023/03/14 07:16:47;;;;;;;5.25;0.70;;;7.50;99.90;;;;;;5055772;28;20465;-73
2023/03/14 07:19:12;;;;;;;5.05;0.60;;;7.60;99.90;;;;;;5037003;28;20049;-72
2023/03/14 07:21:38;;;;;;;5.65;0.65;;;7.40;99.90;;;;;;5055068;28;20092;-73
2023/03/14 07:24:04;;;;;;;4.15;0.90;;;7.30;99.90;;;;;;5054616;28;20049;-71
2023/03/14 07:26:30;;;;;;;5.65;0.60;;;7.50;99.90;;;;;;5055453;28;20503;-72
2023/03/14 07:28:56;;;;;;;7.93;0.80;;;7.20;99.90;;;;;;5056846;28;20131;-73
2023/03/14 07:31:21;;;;;;;6.95;0.80;;;7.40;99.90;;;;;;5021621;28;20045;-74
2023/03/14 07:33:47;;;;;;;9.05;0.70;;;6.90;99.90;;;;;;5055036;28;20057;-71
2023/03/14 07:36:13;;;;;;;6.25;0.68;;;6.70;99.90;;;;;;5054791;28;20106;-74
2023/03/14 07:38:39;;;;;;;8.05;1.15;;;6.70;99.90;;;;;;5054655;28;20053;-72
2023/03/14 07:41:06;;;;;;;5.13;0.98;;;6.70;99.90;;;;;;5036400;28;20084;-72
2023/03/14 07:43:31;;;;;;;3.63;0.40;;;5.80;99.90;;;;;;5037124;28;20049;-74
2023/03/14 07:45:57;;;;;;;5.93;0.60;;;6.10;99.90;;;;;;5055459;28;20103;-74
2023/03/14 07:48:24;;;;;;;4.65;1.00;;;6.00;99.90;;;;;;5037223;28;20049;-74
2023/03/14 07:50:54;;;;;;;4.93;0.50;;;5.50;99.90;;;;;;5036977;28;20048;-77
2023/03/14 07:53:21;;;;;;;3.00;0.47;;;5.30;99.90;;;;;;5037034;28;20049;-77
2023/03/14 07:55:47;;;;;;;4.38;0.35;;;;;;;;;;5021530;28;20619;-73
2023/03/14 07:58:14;;;;;;;5.80;0.50;;;5.10;99.90;;;;;;5059905;28;20053;-74
2023/03/14 08:00:40;;;;;;;3.00;1.83;;;;;;;;;;5020614;28;20128;-74
2023/03/14 08:03:06;;;;;;;6.90;3.45;;;4.80;99.90;;;;;;5055096;28;20055;-72
2023/03/14 08:05:37;;;;;;;3.45;0.90;;;5.00;99.90;;;;;;5055191;28;20045;-70
2023/03/14 08:08:04;;;;;;;1.15;0.50;;;4.70;99.90;;;;;;5055086;28;20045;-72
2023/03/14 08:10:30;;;;;;;2.38;0.40;;;4.70;99.90;;;;;;5054205;28;20048;-72
2023/03/14 08:12:57;;;;;;;1.38;0.28;;;4.50;99.90;;;;;;5057641;28;20048;-77
2023/03/14 08:15:24;;;;;;;0.77;0.28;;;4.70;99.90;;;;;;5054868;28;20052;-73
2023/03/14 08:17:51;;;;;;;1.67;0.20;;;5.00;99.90;;;;;;5036939;28;20388;-77
2023/03/14 08:20:17;;;;;;;2.25;0.73;;;4.90;99.90;;;;;;5020397;28;20366;-71
2023/03/14 08:22:43;;;;;;;2.78;0.70;;;4.30;99.90;;;;;;5054080;28;20048;-76
2023/03/14 08:25:10;;;;;;;1.77;0.70;;;4.30;99.90;;;;;;5036281;28;20041;-75
2023/03/14 08:27:38;;;;;;;2.88;0.80;;;4.50;99.90;;;;;;5053976;28;20053;-78
2023/03/14 08:30:05;;;;;;;3.38;0.65;;;4.70;99.90;;;;;;5053963;28;20056;-76
2023/03/14 08:32:31;;;;;;;2.42;0.57;;;4.40;99.90;;;;;;5054513;28;20080;-72
2023/03/14 08:34:56;;;;;;;1.55;0.30;;;4.60;99.90;;;;;;5035190;28;20076;-72
2023/03/14 08:37:24;;;;;;;2.17;0.68;;;4.70;99.90;;;;;;5036218;28;20048;-74
2023/03/14 08:39:50;;;;;;;1.98;0.43;;;4.70;99.90;;;;;;5035944;28;20541;-72
2023/03/14 08:42:16;;;;;;;3.40;0.50;;;4.90;99.90;;;;;;5053640;28;20048;-70
2023/03/14 08:44:42;;;;;;;2.67;0.40;;;5.00;99.90;;;;;;5053848;28;20044;-73
2023/03/14 08:47:07;;;;;;;2.13;0.30;;;4.60;99.90;;;;;;5035920;28;20053;-71
2023/03/14 08:49:33;;;;;;;0.80;0.35;;;5.10;99.90;;;;;;5053706;28;20049;-70
2023/03/14 08:52:00;;;;;;;2.35;0.45;;;4.80;99.90;;;;;;5053650;28;20037;-70
2023/03/14 08:54:26;;;;;;;5.30;0.45;;;4.70;99.90;;;;;;5053552;28;20060;-68
2023/03/14 08:56:52;;;;;;;3.50;0.40;;;5.00;99.90;;;;;;5054130;28;20048;-71
2023/03/14 08:59:18;;;;;;;3.92;0.93;;;4.90;99.90;;;;;;5036234;28;20041;-70
2023/03/14 09:01:43;;;;;;;3.67;0.32;;;5.30;99.90;;;;;;5053424;28;20037;-68
2023/03/14 09:04:09;;;;;;;4.82;0.70;;;5.10;99.90;;;;;;5053458;28;20045;-69
2023/03/14 09:06:35;;;;;;;3.83;0.40;;;4.90;99.90;;;;;;5053489;28;20040;-68
2023/03/14 09:09:01;;;;;;;4.45;0.43;;;4.90;99.90;;;;;;5053770;28;20085;-69
2023/03/14 09:11:27;;;;;;;7.53;1.15;;;5.50;99.90;;;;;;5053407;28;20087;-70
2023/03/14 09:13:53;;;;;;;3.25;0.50;;;5.10;99.90;;;;;;5053962;28;20083;-68
2023/03/14 09:16:18;;;;;;;9.35;1.00;;;5.40;99.90;;;;;;5053355;28;20068;-69
2023/03/14 09:18:44;;;;;;;7.10;0.77;;;5.20;99.90;;;;;;5035401;28;20136;-70
2023/03/14 09:21:10;;;;;;;5.85;0.65;;;5.30;99.90;;;;;;5053282;28;20128;-70
2023/03/14 09:23:36;;;;;;;3.05;0.70;;;5.30;99.90;;;;;;5053309;28;20125;-69
2023/03/14 09:26:02;;;;;;;7.57;0.90;;;5.30;99.90;;;;;;5035750;28;20516;-68
2023/03/14 09:28:28;;;;;;;9.15;1.05;;;5.60;99.90;;;;;;5053855;28;20071;-70
2023/03/14 09:30:54;;;;;;;4.25;0.93;;;5.60;99.90;;;;;;5053235;28;20050;-69
2023/03/14 09:33:20;;;;;;;4.35;1.20;;;5.70;99.90;;;;;;5035729;28;20099;-72
2023/03/14 09:35:46;;;;;;;9.32;1.00;;;5.60;99.90;;;;;;5019290;28;20052;-72
2023/03/14 09:38:12;;;;;;;7.97;1.05;;;5.50;99.90;;;;;;5053219;28;20136;-72
2023/03/14 09:40:38;;;;;;;5.53;0.90;;;5.90;99.90;;;;;;5035418;28;20037;-69
2023/03/14 09:43:04;;;;;;;8.27;1.30;;;5.50;99.90;;;;;;5035198;28;20060;-72
2023/03/14 09:45:36;;;;;;;7.82;0.90;;;5.70;99.90;;;;;;5052860;28;20389;-70
2023/03/14 09:48:04;;;;;;;10.02;1.40;;;6.00;99.90;;;;;;5057194;28;20052;-74
2023/03/14 09:50:43;;;;;;;6.93;1.02;;;5.70;99.90;;;;;;5038780;28;20037;-72
2023/03/14 09:53:43;;;;;;;7.18;1.15;;;5.70;99.90;;;;;;5056861;28;20044;-72
2023/03/14 09:56:22;;;;;;;12.43;1.48;;;5.80;99.90;;;;;;5014695;28;20110;-74
2023/03/14 09:58:55;;;;;;;6.35;1.02;;;5.90;99.90;;;;;;5056613;28;20451;-71
2023/03/14 10:01:26;;;;;;;9.27;1.23;;;5.70;99.90;;;;;;5057035;28;20092;-74
2023/03/14 10:03:55;;;;;;;4.25;1.55;;;5.80;99.90;;;;;;5039179;28;20080;-69
2023/03/14 10:06:29;;;;;;;5.72;1.30;;;6.20;99.90;;;;;;5056251;28;20050;-73
2023/03/14 10:08:56;;;;;;;10.65;0.95;;;5.80;99.90;;;;;;5056563;28;20045;-73
2023/03/14 10:11:24;;;;;;;9.90;1.70;;;6.20;99.90;;;;;;5056599;28;20044;-74
2023/03/14 10:14:03;;;;;;;9.07;2.10;;;5.60;99.90;;;;;;5038642;28;20049;-74
2023/03/14 10:16:31;;;;;;;7.72;1.25;;;5.70;99.90;;;;;;5039152;28;20067;-71
2023/03/14 10:19:10;;;;;;;10.43;1.65;;;5.90;99.90;;;;;;5056160;28;20118;-70
2023/03/14 10:21:50;;;;;;;10.02;1.25;;;5.70;99.90;;;;;;5056798;28;20044;-74
2023/03/14 10:24:25;;;;;;;9.32;1.10;;;5.80;99.90;;;;;;5056596;28;20049;-74
2023/03/14 10:27:20;;;;;;;11.63;1.20;;;5.60;99.90;;;;;;5055996;28;20037;-77
2023/03/14 10:29:58;;;;;;;8.57;1.88;;;5.50;99.90;;;;;;5056449;28;20191;-72
2023/03/14 10:32:38;;;;;;;13.32;1.65;;;5.70;99.90;;;;;;5055452;28;20488;-73
2023/03/14 10:35:16;;;;;;;6.25;1.40;;;5.80;99.90;;;;;;5055858;28;20488;-74
2023/03/14 10:37:55;;;;;;;13.50;1.85;;;5.90;99.90;;;;;;5055855;28;20107;-74
2023/03/14 10:40:27;;;;;;;14.02;1.85;;;6.20;99.90;;;;;;5021945;28;20141;-72
2023/03/14 10:42:55;;;;;;;15.55;1.98;;;6.10;99.90;;;;;;5055496;28;20052;-74
2023/03/14 10:45:35;;;;;;;6.47;1.10;;;6.10;99.90;;;;;;5055737;28;20110;-73
2023/03/14 10:48:42;;;;;;;14.27;1.77;;;5.70;99.90;;;;;;5038463;28;20040;-73
2023/03/14 10:51:23;;;;;;;6.57;1.30;;;5.80;99.90;;;;;;5020538;28;20049;-73
2023/03/14 10:53:57;;;;;;;6.43;1.25;;;5.90;99.90;;;;;;5056431;28;20048;-72
2023/03/14 10:56:24;;;;;;;8.93;1.40;;;6.20;99.90;;;;;;5055631;28;20055;-74
2023/03/14 10:58:57;;;;;;;8.40;1.10;;;6.10;99.90;;;;;;5037001;28;20049;-74
2023/03/14 11:01:34;;;;;;;9.50;1.10;;;5.80;99.90;;;;;;5037979;28;20048;-74
2023/03/14 11:04:06;;;;;;;9.13;1.27;;;6.00;99.90;;;;;;5037953;28;20049;-69
2023/03/14 11:06:36;;;;;;;5.50;0.75;;;5.90;99.90;;;;;;5055375;28;20255;-67
2023/03/14 11:09:23;;;;;;;6.47;0.88;;;6.30;99.90;;;;;;5038068;28;20362;-72
2023/03/14 11:11:49;;;;;;;4.65;1.02;;;6.00;99.90;;;;;;5055670;28;20174;-70
2023/03/14 11:14:18;;;;;;;5.22;0.60;;;6.40;99.90;;;;;;5037578;28;20135;-73
2023/03/14 11:17:13;;;;;;;7.78;0.73;;;6.30;99.90;;;;;;5038431;28;20358;-72
2023/03/14 11:19:49;;;;;;;4.32;0.80;;;6.10;99.90;;;;;;5055280;28;20049;-67
2023/03/14 11:22:37;;;;;;;10.80;0.82;;;6.00;99.90;;;;;;5037869;28;20053;-75
2023/03/14 11:25:15;;;;;;;7.60;0.73;;;6.60;99.90;;;;;;5054834;28;20477;-72
2023/03/14 11:27:43;;;;;;;8.70;0.75;;;6.30;99.90;;;;;;5056423;28;20048;-74
2023/03/14 11:30:30;;;;;;;4.47;1.00;;;6.10;99.90;;;;;;5060537;28;20095;-72
2023/03/14 11:33:05;;;;;;;5.05;0.70;;;6.10;99.90;;;;;;5055316;28;20041;-76
2023/03/14 11:35:36;;;;;;;6.68;0.70;;;5.90;99.90;;;;;;5055118;28;20063;-75
2023/03/14 11:38:02;;;;;;;6.18;0.90;;;6.40;99.90;;;;;;5037109;28;20056;-74
2023/03/14 11:40:28;;;;;;;4.40;0.68;;;6.50;99.90;;;;;;5020655;28;20045;-72
2023/03/14 11:43:23;;;;;;;3.47;0.50;;;6.20;99.90;;;;;;5036955;28;20048;-71
2023/03/14 11:45:51;;;;;;;5.20;0.73;;;6.20;99.90;;;;;;5039157;28;20105;-76
2023/03/14 11:48:20;;;;;;;5.90;0.70;;;6.40;99.90;;;;;;5054822;28;20124;-71
2023/03/14 11:50:51;;;;;;;6.63;0.80;;;6.30;99.90;;;;;;5054477;28;20041;-71
2023/03/14 11:53:41;;;;;;;4.30;0.60;;;6.80;99.90;;;;;;5055028;28;20045;-72
2023/03/14 11:56:15;;;;;;;5.20;0.73;;;6.30;99.90;;;;;;5055274;28;20052;-70
2023/03/14 11:58:49;;;;;;;6.72;0.55;;;6.30;99.90;;;;;;5020738;28;20393;-80
2023/03/14 12:01:21;;;;;;;4.10;0.50;;;6.30;99.90;;;;;;5054323;28;20033;-73
2023/03/14 12:04:05;;;;;;;5.30;0.50;;;6.40;99.90;;;;;;5037688;28;20459;-75
2023/03/14 12:06:42;;;;;;;3.97;0.40;;;6.30;99.90;;;;;;5054350;28;20492;-83
2023/03/14 12:09:09;;;;;;;2.70;0.60;;;6.00;99.90;;;;;;5037423;28;20049;-79
2023/03/14 12:11:52;;;;;;;1.13;0.30;;;6.40;99.90;;;;;;5036555;28;20056;-73
2023/03/14 12:14:26;;;;;;;3.93;0.40;;;6.20;99.90;;;;;;5020447;28;20045;-74
2023/03/14 12:17:12;;;;;;;4.60;0.55;;;6.50;99.90;;;;;;5054150;28;20155;-74
2023/03/14 12:19:39;;;;;;;3.13;0.75;;;6.40;99.90;;;;;;5053791;28;20053;-70
2023/03/14 12:22:22;;;;;;;4.90;0.65;;;6.60;99.90;;;;;;5053890;28;20090;-78
2023/03/14 12:24:53;;;;;;;3.28;0.40;;;6.80;99.90;;;;;;5053982;28;20056;-76
2023/03/14 12:27:42;;;;;;;4.47;0.50;;;6.70;99.90;;;;;;5053955;28;20056;-77
2023/03/14 12:30:29;;;;;;;4.88;0.57;;;6.80;99.90;;;;;;5037173;28;20484;-73
2023/03/14 12:33:16;;;;;;;3.70;0.60;;;6.80;99.90;;;;;;5021022;28;20370;-76
2023/03/14 12:35:57;;;;;;;7.32;0.82;;;6.90;99.90;;;;;;5037006;28;20503;-71
2023/03/14 12:38:45;;;;;;;3.70;0.52;;;6.70;99.90;;;;;;5020119;28;20053;-77
2023/03/14 12:41:22;;;;;;;8.05;1.52;;;6.80;99.90;;;;;;5035771;28;20036;-76
2023/03/14 12:43:48;;;;;;;7.68;1.08;;;6.60;99.90;;;;;;5054532;28;20045;-72
2023/03/14 12:46:18;;;;;;;5.25;0.95;;;6.50;99.90;;;;;;5053559;28;20057;-77
2023/03/14 12:48:56;;;;;;;6.22;1.52;;;6.80;99.90;;;;;;5036897;28;20118;-78
2023/03/14 12:51:38;;;;;;;6.57;0.82;;;6.40;99.90;;;;;;5036476;28;20053;-77
2023/03/14 12:54:25;;;;;;;7.45;1.15;;;6.40;99.90;;;;;;5036841;28;20056;-82
2023/03/14 12:57:03;;;;;;;6.88;1.92;;;6.30;99.90;;;;;;5035817;28;20106;-78
2023/03/14 12:59:34;;;;;;;6.20;1.15;;;6.60;99.90;;;;;;5036031;28;20056;-79
2023/03/14 13:02:05;;;;;;;7.07;1.05;;;6.50;99.90;;;;;;5054068;28;20106;-84
2023/03/14 13:04:47;;;;;;;9.60;0.90;;;6.80;99.90;;;;;;5053536;28;20044;-69